AirNav   Air Wisconsin Up To $57,000 Bonus
 
 922 users online  

IL39 Perry Airport
Kansas, Illinois, USA

GOING TO KANSAS?


FAA INFORMATION EFFECTIVE 01 DECEMBER 2022

Location

FAA Identifier: IL39
Lat/Long: 39-28-48.9200N 087-50-40.4800W
39-28.815333N 087-50.674667W
39.4802556,-87.8445778
(estimated)
Elevation: 691 ft. / 211 m
From city: 7 miles SE of KANSAS, IL
Time zone: UTC -6 (UTC -5 during Daylight Saving Time)
Zip code: 61933

Airport Operations

Airport use: Private use. Permission required prior to landing
Activation date: 03/2016
Control tower: no
ARTCC: INDIANAPOLIS CENTER
FSS: SAINT LOUIS FLIGHT SERVICE STATION
Attendance: UNATNDD
Wind indicator: yes
Segmented circle: no

Airport Communications

WX AWOS-3 at PRG (15 nm NE): 124.175 (217-465-4304)

Nearby radio navigation aids

VOR radial/distance  VOR name  Freq  Var
TTHr267/27.6TERRE HAUTE VORTAC115.3002E
CMIr146/38.8CHAMPAIGN VORTAC110.0003E

 
NDB name  Hdg/Dist  Freq  Var  ID
PALESTINE344/29.539103WPLX .--. .-.. -..-

Airport Services

Runway Information

Runway 18/36

Dimensions: 2380 x 100 ft. / 725 x 30 m
Surface: turf
RUNWAY 18  RUNWAY 36
Traffic pattern: leftleft
Displaced threshold: no810 ft.
Obstructions: none45 ft. tree, 90 ft. from runway
RY 36 APCH SLOPE 20:1 TO DTHR.

Airport Ownership and Management from official FAA records

Ownership: Privately-owned
Owner: JUSTIN & ANGELA PERRY
9207 E. 2250TH RD
PARIS, IL 61944
Phone 217-889-3926
Manager: JUSTIN PERRY
9207 E. 2250TH RD
PARIS, IL 61944
Phone 217-889-3926

Additional Remarks

FOR CD CTC INDIANAPOLIS ARTCC AT 317-247-2411.

Instrument Procedures

There are no published instrument procedures at IL39.

Some nearby airports with instrument procedures:

1H8 - Casey Municipal Airport (13 nm SW)
KPRG - Edgar County Airport (15 nm NE)
KMTO - Coles County Memorial Airport (20 nm W)
3I3 - Sky King Airport (22 nm E)
KHUF - Terre Haute Regional Airport (25 nm E)
 
Loc | Ops | Rwys | IFR | FBO | Links
Com | Nav | Svcs | Stats | Notes
Aerial photo
No photo
 
Airport distance calculator
Flying to Perry Airport? Find the distance to fly.

From to IL39

Sunrise and sunset
Times for 07-Dec-2022
 Local
(UTC-6)
 Zulu
(UTC)
Morning civil twilight06:2912:29
Sunrise06:5912:59
Sunset16:2722:27
Evening civil twilight16:5722:57

Current date and time
Zulu (UTC)  07-Dec-2022 12:54:08
Local (UTC-6)  07-Dec-2022 06:54:08
 
METAR
KPRG 
16nm NE 
071235Z AUTO 00000KT 3SM BR BKN011 04/04 A3017 RMK AO2 T00350035
KMTO 
20nm W 
071153Z AUTO 34003KT 1/4SM FG VV006 03/03 A3015 RMK AO2 SLP213 T00330028 10061 20022 53009
KHUF 
24nm E 
071222Z 33003KT 4SM BR BKN007 06/05 A3016 RMK AO2 T00610050
KRSV 
29nm S 
071235Z AUTO 00000KT 1 1/2SM BR BKN031 04/04 A3017 RMK AO2 T00410039
TAF
KHUF 
24nm E 
071120Z 0712/0812 01004KT 5SM BR FEW010 BKN025 TEMPO 0712/0714 4SM BR BKN011 FM071500 34003KT 6SM BR SCT011 OVC025 FM071800 32005KT P6SM BKN035 FM072300 01004KT 5SM BR SCT010 BKN015 FM080400 04004KT 3SM BR BKN010
NOTAMs
Click for the latest NOTAMs
NOTAMs are issued by the DoD/FAA and will open in a separate window not controlled by AirNav.

 

 
 

Would you like to see your business listed on this page?

 If your business provides an interesting product or service to pilots, flight crews, aircraft, or users of the Perry Airport, you should consider listing it here.  To start the listing process, click on the button below
 
Add a business
 

Other Pages about Perry Airport

Update a link
 
Copyright © AirNav, LLC. All rights reserved. Privacy Policy  Contact